createdAt,value
2022-09-21T00:02:15.146Z,48.13
2022-09-21T00:04:44.394Z,52.78
2022-09-21T00:07:13.487Z,57.63
2022-09-21T00:09:45.340Z,52.70
2022-09-21T00:12:15.100Z,58.70
2022-09-21T00:14:45.313Z,56.97
2022-09-21T00:17:14.536Z,57.08
2022-09-21T00:19:43.721Z,57.85
2022-09-21T00:22:13.249Z,48.30
2022-09-21T00:24:49.468Z,45.97
2022-09-21T00:27:19.100Z,45.30
2022-09-21T00:29:48.232Z,47.70
2022-09-21T00:32:24.735Z,51.15
2022-09-21T00:34:53.896Z,39.83
2022-09-21T00:37:23.190Z,54.22
2022-09-21T00:39:54.913Z,45.05
2022-09-21T00:44:59.228Z,41.90
2022-09-21T00:47:32.934Z,36.92
2022-09-21T00:50:07.094Z,43.97
2022-09-21T00:52:41.301Z,41.05
2022-09-21T00:55:17.269Z,33.95
2022-09-21T00:57:50.762Z,39.05
2022-09-21T01:00:20.264Z,36.17
2022-09-21T01:02:49.991Z,43.40
2022-09-21T01:05:19.480Z,39.17
2022-09-21T01:07:49.899Z,40.22
2022-09-21T01:10:27.101Z,45.42
2022-09-21T01:13:17.949Z,38.13
2022-09-21T01:15:56.121Z,45.53
2022-09-21T01:18:36.919Z,38.28
2022-09-21T01:21:20.798Z,36.78
2022-09-21T01:24:19.404Z,37.60
2022-09-21T01:27:35.638Z,53.42
2022-09-21T01:30:09.524Z,44.20
2022-09-21T01:32:43.472Z,46.22
2022-09-21T01:35:18.276Z,38.40
2022-09-21T01:37:57.217Z,48.40
2022-09-21T01:40:35.411Z,34.60
2022-09-21T01:43:13.685Z,34.60
2022-09-21T01:45:58.006Z,30.20
2022-09-21T01:48:27.913Z,26.73
2022-09-21T01:50:59.818Z,27.05
2022-09-21T01:53:34.581Z,29.70
2022-09-21T01:56:11.648Z,30.30
2022-09-21T01:58:47.783Z,30.70
2022-09-21T02:01:23.109Z,32.38
2022-09-21T02:03:56.165Z,31.35
2022-09-21T02:06:27.785Z,29.83
2022-09-21T02:08:57.723Z,27.20
2022-09-21T02:11:26.972Z,27.80
2022-09-21T02:16:39.328Z,29.88
2022-09-21T02:19:28.866Z,39.08
2022-09-21T02:22:10.689Z,30.55
2022-09-21T02:24:44.368Z,24.75
2022-09-21T02:27:29.955Z,35.65
2022-09-21T02:30:05.336Z,23.10
2022-09-21T02:32:50.007Z,35.15
2022-09-21T02:35:30.059Z,35.60
2022-09-21T02:38:09.067Z,132.93
2022-09-21T02:40:43.198Z,50.50
2022-09-21T02:43:16.603Z,44.08
2022-09-21T02:45:57.235Z,45.83
2022-09-21T02:48:38.504Z,41.95
2022-09-21T02:51:17.568Z,39.08
2022-09-21T02:53:49.053Z,42.75
2022-09-21T02:56:18.631Z,35.35
2022-09-21T02:58:51.468Z,33.45
2022-09-21T03:01:22.027Z,34.45
2022-09-21T03:03:53.342Z,31.33
2022-09-21T03:06:23.251Z,34.20
2022-09-21T03:08:52.452Z,28.90
2022-09-21T03:11:22.281Z,36.63
2022-09-21T03:13:51.358Z,30.27
2022-09-21T03:16:21.952Z,31.08
2022-09-21T03:18:53.079Z,31.98
2022-09-21T03:21:22.324Z,25.75
2022-09-21T03:23:51.702Z,23.45
2022-09-21T03:26:26.378Z,20.35
2022-09-21T03:28:55.725Z,25.67
2022-09-21T03:31:25.057Z,26.73
2022-09-21T03:34:01.485Z,27.98
2022-09-21T03:36:30.806Z,24.88
2022-09-21T03:38:59.914Z,24.75
2022-09-21T03:41:29.089Z,24.00
2022-09-21T03:43:58.253Z,26.10
2022-09-21T03:46:34.923Z,29.52
2022-09-21T03:49:11.305Z,20.05
2022-09-21T03:51:40.858Z,20.48
2022-09-21T03:54:09.996Z,22.63
2022-09-21T03:56:39.564Z,17.40
2022-09-21T03:59:11.898Z,21.20
2022-09-21T04:01:43.298Z,17.45
2022-09-21T04:04:16.223Z,17.92
2022-09-21T04:06:55.687Z,19.13
2022-09-21T04:09:24.946Z,16.45
2022-09-21T04:11:54.465Z,19.33
2022-09-21T04:14:24.527Z,17.20
2022-09-21T04:16:58.951Z,15.00
2022-09-21T04:19:30.600Z,18.58
2022-09-21T04:22:00.013Z,15.60
2022-09-21T04:24:30.541Z,19.35
2022-09-21T04:26:59.702Z,17.35
2022-09-21T04:29:28.892Z,20.17
2022-09-21T04:31:58.029Z,15.07
2022-09-21T04:34:27.159Z,14.43
2022-09-21T04:39:31.415Z,18.30
2022-09-21T04:42:00.458Z,14.75
2022-09-21T04:44:29.887Z,22.90
2022-09-21T04:46:59.878Z,12.35
2022-09-21T04:49:29.128Z,14.90
2022-09-21T04:52:06.687Z,14.45
2022-09-21T04:54:35.785Z,13.07
2022-09-21T04:57:10.074Z,15.65
2022-09-21T04:59:39.245Z,13.20
2022-09-21T05:02:08.504Z,11.55
2022-09-21T05:04:37.749Z,15.23
2022-09-21T05:07:09.060Z,16.80
2022-09-21T05:09:56.474Z,12.50
2022-09-21T05:12:25.725Z,11.32
2022-09-21T05:14:55.658Z,13.57
2022-09-21T05:17:25.676Z,14.73
2022-09-21T05:19:55.142Z,17.95
2022-09-21T05:22:27.146Z,19.10
2022-09-21T05:27:25.042Z,14.73
2022-09-21T05:29:59.913Z,20.30
2022-09-21T05:32:40.357Z,19.75
2022-09-21T05:35:18.393Z,16.92
2022-09-21T05:37:55.593Z,16.38
2022-09-21T05:40:25.976Z,21.73
2022-09-21T05:42:56.057Z,20.13
2022-09-21T05:45:28.420Z,17.23
2022-09-21T05:48:15.704Z,19.40
2022-09-21T05:50:56.353Z,17.00
2022-09-21T05:54:00.378Z,20.50
2022-09-21T05:56:45.109Z,22.35
2022-09-21T05:59:40.016Z,19.15
2022-09-21T06:02:22.430Z,16.33
2022-09-21T06:04:53.785Z,16.17
2022-09-21T06:07:22.958Z,16.65
2022-09-21T06:09:54.022Z,16.65
2022-09-21T06:12:23.244Z,15.88
2022-09-21T06:14:52.399Z,15.57
2022-09-21T06:17:21.564Z,14.20
2022-09-21T06:19:50.755Z,11.85
2022-09-21T06:22:19.917Z,14.82
2022-09-21T06:24:49.010Z,14.10
2022-09-21T06:27:20.773Z,14.32
2022-09-21T06:32:20.782Z,21.00
2022-09-21T06:34:55.130Z,13.20
2022-09-21T06:37:24.304Z,14.20
2022-09-21T06:40:04.115Z,17.73
2022-09-21T06:42:35.416Z,15.73
2022-09-21T06:45:12.094Z,14.82
2022-09-21T06:47:41.190Z,13.10
2022-09-21T06:50:11.101Z,17.45
2022-09-21T06:52:41.630Z,16.17
2022-09-21T06:55:11.897Z,11.60
2022-09-21T06:57:43.365Z,14.07
2022-09-21T07:00:14.775Z,15.13
2022-09-21T07:02:46.360Z,13.50
2022-09-21T07:05:20.574Z,16.65
2022-09-21T07:07:53.717Z,14.38
2022-09-21T07:10:23.137Z,16.17
2022-09-21T07:12:59.395Z,14.18
2022-09-21T07:15:29.976Z,11.55
2022-09-21T07:18:06.329Z,10.68
2022-09-21T07:20:41.040Z,12.60
2022-09-21T07:23:14.828Z,12.30
2022-09-21T07:25:44.435Z,12.30
2022-09-21T07:28:15.730Z,11.00
2022-09-21T07:30:45.127Z,12.65
2022-09-21T07:33:14.234Z,7.85
2022-09-21T07:35:52.758Z,12.63
2022-09-21T07:38:22.256Z,9.27
2022-09-21T07:40:52.088Z,10.68
2022-09-21T07:43:23.207Z,8.88
2022-09-21T07:46:01.343Z,11.30
2022-09-21T07:48:31.026Z,10.38
2022-09-21T07:51:05.716Z,10.00
2022-09-21T07:53:35.233Z,8.60
2022-09-21T07:56:05.482Z,11.40
2022-09-21T07:58:56.239Z,9.27
2022-09-21T08:01:25.990Z,9.93
2022-09-21T08:03:56.859Z,6.85
2022-09-21T08:06:27.300Z,7.50
2022-09-21T08:09:01.695Z,8.95
2022-09-21T08:11:32.751Z,6.55
2022-09-21T08:14:22.464Z,7.90
2022-09-21T08:17:00.264Z,9.00
2022-09-21T08:19:29.566Z,9.43
2022-09-21T08:21:58.712Z,8.23
2022-09-21T08:24:28.346Z,9.45
2022-09-21T08:26:59.444Z,9.68
2022-09-21T08:29:30.733Z,9.68
2022-09-21T08:32:00.238Z,10.85
2022-09-21T08:34:29.544Z,11.13
2022-09-21T08:36:58.846Z,8.55
2022-09-21T08:39:28.086Z,10.02
2022-09-21T08:42:11.420Z,8.35
2022-09-21T08:44:46.845Z,7.35
2022-09-21T08:47:20.520Z,13.40
2022-09-21T08:49:55.738Z,9.63
2022-09-21T08:52:35.105Z,8.80
2022-09-21T08:55:17.351Z,7.63
2022-09-21T08:57:49.831Z,3.85
2022-09-21T09:00:23.002Z,3.60
2022-09-21T09:03:29.962Z,5.47
2022-09-21T09:06:10.108Z,5.30
2022-09-21T09:09:09.352Z,7.55
2022-09-21T09:12:00.108Z,8.30
2022-09-21T09:14:49.092Z,7.90
2022-09-21T09:17:51.324Z,6.20
2022-09-21T09:23:04.394Z,6.82
2022-09-21T09:25:39.456Z,5.82
2022-09-21T09:28:22.624Z,6.03
2022-09-21T09:30:58.704Z,6.72
2022-09-21T09:33:43.971Z,7.45
2022-09-21T09:36:14.898Z,4.25
2022-09-21T09:38:52.152Z,13.27
2022-09-21T09:41:50.230Z,6.00
2022-09-21T09:44:39.873Z,4.38
2022-09-21T09:47:18.606Z,9.02
2022-09-21T09:50:00.739Z,10.23
2022-09-21T09:52:31.935Z,6.97
2022-09-21T09:55:01.605Z,6.38
2022-09-21T09:57:34.125Z,5.80
2022-09-21T10:00:14.201Z,9.07
2022-09-21T10:02:49.644Z,4.38
2022-09-21T10:05:26.943Z,6.57
2022-09-21T10:07:56.174Z,7.13
2022-09-21T10:10:34.035Z,7.18
2022-09-21T10:13:15.750Z,7.85
2022-09-21T10:15:50.871Z,8.60
2022-09-21T10:18:24.055Z,7.95
2022-09-21T10:21:01.838Z,8.52
2022-09-21T10:23:32.879Z,8.20
2022-09-21T10:26:05.077Z,4.37
2022-09-21T10:28:35.441Z,6.40
2022-09-21T10:31:19.282Z,6.20
2022-09-21T10:33:55.001Z,6.05
2022-09-21T10:36:39.654Z,9.93
2022-09-21T10:39:23.491Z,5.57
2022-09-21T10:41:56.049Z,8.57
2022-09-21T10:44:28.597Z,7.10
2022-09-21T10:47:00.585Z,9.23
2022-09-21T10:49:31.082Z,6.05
2022-09-21T10:52:05.126Z,6.22
2022-09-21T10:54:35.592Z,7.85
2022-09-21T10:57:16.512Z,7.93
2022-09-21T10:59:46.316Z,9.10
2022-09-21T11:02:43.709Z,9.90
2022-09-21T11:05:17.740Z,6.65
2022-09-21T11:07:56.457Z,8.80
2022-09-21T11:10:38.620Z,7.38
2022-09-21T11:13:30.857Z,11.73
2022-09-21T11:16:06.291Z,4.97
2022-09-21T11:18:47.858Z,7.50
2022-09-21T11:21:32.129Z,9.45
2022-09-21T11:24:14.653Z,7.45
2022-09-21T11:26:51.927Z,16.58
2022-09-21T11:29:31.308Z,10.95
2022-09-21T11:32:23.511Z,7.72
2022-09-21T11:35:20.720Z,8.32
2022-09-21T11:37:58.854Z,5.55
2022-09-21T11:40:50.273Z,7.20
2022-09-21T11:43:32.782Z,4.88
2022-09-21T11:46:15.405Z,6.10
2022-09-21T11:48:57.326Z,7.82
2022-09-21T11:51:41.967Z,6.05
2022-09-21T11:54:33.940Z,6.07
2022-09-21T11:57:10.882Z,6.13
2022-09-21T11:59:59.941Z,6.07
2022-09-21T12:02:53.246Z,5.97
2022-09-21T12:05:31.463Z,6.80
2022-09-21T12:08:35.394Z,6.38
2022-09-21T12:11:13.634Z,7.53
2022-09-21T12:13:54.431Z,5.20
2022-09-21T12:16:30.047Z,7.18
2022-09-21T12:19:06.744Z,6.25
2022-09-21T12:21:39.007Z,5.68
2022-09-21T12:24:16.978Z,5.93
2022-09-21T12:26:50.289Z,4.93
2022-09-21T12:29:30.669Z,4.15
2022-09-21T12:32:05.168Z,5.45
2022-09-21T12:34:41.614Z,5.93
2022-09-21T12:37:16.537Z,6.25
2022-09-21T12:39:51.481Z,5.72
2022-09-21T12:42:32.598Z,4.88
2022-09-21T12:45:08.530Z,6.68
2022-09-21T12:47:49.067Z,5.90
2022-09-21T12:56:51.303Z,3.75
2022-09-21T12:59:31.807Z,3.10
2022-09-21T13:02:15.069Z,9.82
2022-09-21T13:04:52.989Z,2.03
2022-09-21T13:07:54.936Z,4.30
2022-09-21T13:10:40.520Z,2.95
2022-09-21T13:13:22.328Z,6.10
2022-09-21T13:15:52.706Z,3.78
2022-09-21T13:18:35.860Z,3.60
2022-09-21T13:21:18.803Z,4.15
2022-09-21T13:23:58.733Z,6.30
2022-09-21T13:26:38.073Z,3.38
2022-09-21T13:29:34.439Z,5.28
2022-09-21T13:32:05.467Z,5.50
2022-09-21T13:34:36.876Z,5.45
2022-09-21T13:37:32.486Z,5.28
2022-09-21T13:40:42.057Z,5.97
2022-09-21T13:43:46.826Z,4.38
2022-09-21T13:46:55.636Z,4.47
2022-09-21T13:49:39.088Z,6.32
2022-09-21T13:52:34.235Z,7.22
2022-09-21T13:55:06.734Z,6.30
2022-09-21T13:57:42.493Z,5.45
2022-09-21T14:00:39.311Z,3.97
2022-09-21T14:03:23.745Z,6.72
2022-09-21T14:05:55.248Z,4.25
2022-09-21T14:08:33.162Z,4.57
2022-09-21T14:11:05.890Z,5.47
2022-09-21T14:13:37.793Z,8.38
2022-09-21T14:16:47.696Z,2.72
2022-09-21T14:20:01.539Z,5.20
2022-09-21T14:22:45.010Z,5.00
2022-09-21T14:25:50.669Z,8.98
2022-09-21T14:28:25.820Z,5.32
2022-09-21T14:31:00.862Z,4.82
2022-09-21T14:33:41.269Z,9.70
2022-09-21T14:36:20.365Z,7.75
2022-09-21T14:38:57.730Z,8.93
2022-09-21T14:41:30.897Z,8.38
2022-09-21T14:44:01.027Z,5.63
2022-09-21T14:46:53.508Z,8.45
2022-09-21T14:49:52.403Z,7.68
2022-09-21T14:52:38.025Z,8.35
2022-09-21T14:55:19.379Z,6.95
2022-09-21T14:58:13.981Z,9.05
2022-09-21T15:00:45.800Z,4.00
2022-09-21T15:06:30.789Z,6.80
2022-09-21T15:09:32.153Z,11.70
2022-09-21T15:12:11.751Z,6.50
2022-09-21T15:14:50.442Z,6.88
2022-09-21T15:17:29.499Z,6.70
2022-09-21T15:20:06.119Z,8.55
2022-09-21T15:22:44.500Z,8.13
2022-09-21T15:25:15.870Z,6.63
2022-09-21T15:27:48.051Z,6.07
2022-09-21T15:30:25.749Z,4.85
2022-09-21T15:32:57.371Z,6.70
2022-09-21T15:35:28.887Z,7.82
2022-09-21T15:38:00.468Z,10.57
2022-09-21T15:40:51.943Z,3.42
2022-09-21T15:43:34.068Z,5.18
2022-09-21T15:46:05.401Z,5.05
2022-09-21T15:48:35.976Z,4.50
2022-09-21T15:51:12.351Z,7.53
2022-09-21T15:53:50.019Z,7.20
2022-09-21T15:56:23.008Z,7.28
2022-09-21T15:59:07.467Z,5.13
2022-09-21T16:01:44.338Z,3.45
2022-09-21T16:04:23.235Z,5.35
2022-09-21T16:07:03.752Z,5.32
2022-09-21T16:09:42.210Z,10.48
2022-09-21T16:12:49.222Z,7.55
2022-09-21T16:15:26.011Z,4.65
2022-09-21T16:18:01.361Z,4.15
2022-09-21T16:20:48.248Z,5.05
2022-09-21T16:23:21.107Z,6.90
2022-09-21T16:25:56.862Z,7.95
2022-09-21T16:28:35.965Z,4.57
2022-09-21T16:31:30.578Z,5.35
2022-09-21T16:34:21.606Z,5.47
2022-09-21T16:36:53.472Z,8.23
2022-09-21T16:41:59.703Z,8.52
2022-09-21T16:47:16.549Z,6.18
2022-09-21T16:49:46.189Z,5.32
2022-09-21T16:52:16.757Z,3.63
2022-09-21T16:54:50.932Z,3.97
2022-09-21T16:57:20.865Z,2.28
2022-09-21T16:59:50.373Z,2.30
2022-09-21T17:02:26.727Z,5.65
2022-09-21T17:04:56.105Z,3.15
2022-09-21T17:07:25.525Z,3.47
2022-09-21T17:09:54.630Z,0.80
2022-09-21T17:12:24.108Z,4.50
2022-09-21T17:14:59.562Z,3.53
2022-09-21T17:17:32.619Z,2.50
2022-09-21T17:20:08.950Z,3.63
2022-09-21T17:22:38.085Z,3.78
2022-09-21T17:25:09.709Z,5.25
2022-09-21T17:27:40.786Z,2.35
2022-09-21T17:30:17.119Z,2.28
2022-09-21T17:32:49.720Z,2.63
2022-09-21T17:35:24.800Z,2.72
2022-09-21T17:37:54.164Z,3.78
2022-09-21T17:40:24.943Z,1.50
2022-09-21T17:43:11.557Z,3.35
2022-09-21T17:45:46.292Z,2.25
2022-09-21T17:48:21.958Z,2.45
2022-09-21T17:50:57.983Z,6.85
2022-09-21T17:53:36.940Z,6.43
2022-09-21T17:56:32.722Z,5.60
2022-09-21T17:59:04.562Z,8.25
2022-09-21T18:04:08.462Z,3.97
2022-09-21T18:06:38.745Z,3.08
2022-09-21T18:11:57.798Z,2.50
2022-09-21T18:14:36.344Z,2.58
2022-09-21T18:17:21.697Z,2.28
2022-09-21T18:20:06.789Z,2.95
2022-09-21T18:22:46.377Z,2.92
2022-09-21T18:25:18.572Z,3.55
2022-09-21T18:27:57.056Z,2.70
2022-09-21T18:30:26.533Z,2.83
2022-09-21T18:33:10.206Z,4.45
2022-09-21T18:35:57.334Z,4.60
2022-09-21T18:38:36.615Z,4.32
2022-09-21T18:41:14.107Z,3.47
2022-09-21T18:44:03.186Z,6.18
2022-09-21T18:46:42.148Z,4.38
2022-09-21T18:49:18.743Z,4.22
2022-09-21T18:51:56.675Z,3.70
2022-09-21T18:54:27.662Z,4.43
2022-09-21T18:56:58.398Z,3.58
2022-09-21T18:59:33.327Z,5.38
2022-09-21T19:02:03.470Z,7.47
2022-09-21T19:04:33.365Z,6.63
2022-09-21T19:07:16.022Z,9.15
2022-09-21T19:09:55.205Z,8.00
2022-09-21T19:12:54.841Z,7.00
2022-09-21T19:15:59.826Z,6.28
2022-09-21T19:18:43.464Z,6.88
2022-09-21T19:21:23.735Z,6.20
2022-09-21T19:24:11.420Z,7.55
2022-09-21T19:26:53.018Z,6.93
2022-09-21T19:29:35.010Z,5.70
2022-09-21T19:34:38.436Z,7.55
2022-09-21T19:37:08.482Z,4.85
2022-09-21T19:39:42.138Z,5.22
2022-09-21T19:42:27.860Z,5.95
2022-09-21T19:45:16.887Z,5.53
2022-09-21T19:47:54.460Z,5.22
2022-09-21T19:50:28.129Z,6.82
2022-09-21T19:53:22.973Z,4.70
2022-09-21T19:56:07.681Z,6.10
2022-09-21T19:58:50.599Z,9.35
2022-09-21T20:04:09.472Z,6.32
2022-09-21T20:06:44.110Z,5.05
2022-09-21T20:09:16.828Z,7.47
2022-09-21T20:11:54.173Z,5.97
2022-09-21T20:14:36.601Z,5.43
2022-09-21T20:17:10.358Z,6.53
2022-09-21T20:19:45.969Z,8.18
2022-09-21T20:22:17.292Z,5.90
2022-09-21T20:24:56.465Z,5.45
2022-09-21T20:27:34.421Z,5.38
2022-09-21T20:30:04.173Z,7.80
2022-09-21T20:32:34.929Z,6.32
2022-09-21T20:35:04.130Z,7.20
2022-09-21T20:37:33.156Z,4.57
2022-09-21T20:40:02.808Z,6.95
2022-09-21T20:42:37.910Z,4.70
2022-09-21T20:45:09.807Z,5.30
2022-09-21T20:47:51.222Z,4.32
2022-09-21T20:50:21.122Z,3.33
2022-09-21T20:52:50.503Z,3.55
2022-09-21T20:55:20.825Z,3.08
2022-09-21T20:57:57.620Z,4.88
2022-09-21T21:00:27.665Z,5.22
2022-09-21T21:02:58.673Z,6.47
2022-09-21T21:05:28.566Z,3.08
2022-09-21T21:07:58.107Z,5.60
2022-09-21T21:10:27.891Z,3.83
2022-09-21T21:12:59.948Z,5.57
2022-09-21T21:15:29.814Z,6.43
2022-09-21T21:17:58.930Z,8.15
2022-09-21T21:20:28.630Z,6.18
2022-09-21T21:22:57.741Z,6.95
2022-09-21T21:25:26.879Z,4.28
2022-09-21T21:27:58.966Z,5.68
2022-09-21T21:30:30.719Z,6.35
2022-09-21T21:33:05.126Z,6.75
2022-09-21T21:35:35.788Z,7.18
2022-09-21T21:38:05.075Z,6.00
2022-09-21T21:43:19.177Z,6.18
2022-09-21T21:46:01.469Z,3.05
2022-09-21T21:48:31.647Z,5.10
2022-09-21T21:51:01.910Z,5.45
2022-09-21T21:53:34.220Z,4.45
2022-09-21T21:56:05.235Z,3.33
2022-09-21T21:58:34.972Z,4.93
2022-09-21T22:01:14.678Z,5.55
2022-09-21T22:03:43.937Z,4.28
2022-09-21T22:06:13.974Z,4.70
2022-09-21T22:08:44.554Z,6.25
2022-09-21T22:11:14.391Z,6.20
2022-09-21T22:13:43.432Z,4.72
2022-09-21T22:18:52.188Z,4.50
2022-09-21T22:21:23.323Z,3.45
2022-09-21T22:23:59.878Z,7.90
2022-09-21T22:26:30.664Z,8.65
2022-09-21T22:29:04.358Z,4.70
2022-09-21T22:31:37.954Z,4.38
2022-09-21T22:34:08.624Z,4.40
2022-09-21T22:36:45.199Z,5.18
2022-09-21T22:39:15.245Z,4.95
2022-09-21T22:41:45.184Z,5.95
2022-09-21T22:44:14.398Z,5.05
2022-09-21T22:46:45.460Z,5.18
2022-09-21T22:49:14.627Z,3.00
2022-09-21T22:51:43.660Z,3.30
2022-09-21T22:54:12.822Z,5.07
2022-09-21T22:59:16.402Z,7.10
2022-09-21T23:01:47.476Z,6.20
2022-09-21T23:04:16.702Z,5.43
2022-09-21T23:06:51.713Z,5.88
2022-09-21T23:09:22.413Z,6.93
2022-09-21T23:11:53.363Z,6.53
2022-09-21T23:14:24.302Z,5.40
2022-09-21T23:16:55.393Z,4.20
2022-09-21T23:19:24.617Z,5.03
2022-09-21T23:21:54.539Z,7.10
2022-09-21T23:24:23.721Z,5.15
2022-09-21T23:26:52.980Z,7.15
2022-09-21T23:29:22.151Z,7.90
2022-09-21T23:31:56.363Z,6.93
2022-09-21T23:34:27.576Z,8.55
2022-09-21T23:36:56.822Z,7.80
2022-09-21T23:39:25.861Z,7.18
2022-09-21T23:41:55.049Z,7.63
2022-09-21T23:44:24.168Z,8.23
2022-09-21T23:46:53.408Z,12.43
2022-09-21T23:49:22.574Z,12.13
2022-09-21T23:54:38.983Z,11.68
2022-09-21T23:57:08.263Z,11.13
2022-09-21T23:59:37.490Z,10.05
